createdAt,value
2022-11-18T00:01:06.591Z,20.30
2022-11-18T00:03:32.923Z,19.27
2022-11-18T00:05:59.579Z,19.70
2022-11-18T00:08:26.557Z,19.63
2022-11-18T00:10:53.981Z,19.53
2022-11-18T00:13:39.463Z,17.80
2022-11-18T00:16:10.950Z,20.30
2022-11-18T00:18:37.981Z,20.47
2022-11-18T00:21:12.229Z,18.90
2022-11-18T00:23:39.217Z,20.30
2022-11-18T00:26:12.380Z,21.70
2022-11-18T00:28:39.880Z,20.23
2022-11-18T00:31:11.633Z,17.63
2022-11-18T00:33:38.855Z,20.70
2022-11-18T00:36:07.119Z,19.90
2022-11-18T00:38:33.541Z,20.87
2022-11-18T00:41:17.776Z,20.50
2022-11-18T00:43:44.101Z,19.97
2022-11-18T00:46:12.529Z,18.47
2022-11-18T00:48:39.704Z,20.30
2022-11-18T00:51:13.480Z,18.60
2022-11-18T00:53:39.828Z,23.90
2022-11-18T00:56:07.170Z,18.70
2022-11-18T00:58:34.445Z,16.73
2022-11-18T01:01:01.392Z,19.27
2022-11-18T01:03:28.784Z,18.27
2022-11-18T01:05:55.149Z,22.67
2022-11-18T01:08:22.027Z,17.87
2022-11-18T01:10:49.352Z,18.20
2022-11-18T01:13:21.045Z,18.90
2022-11-18T01:15:53.971Z,21.27
2022-11-18T01:18:25.062Z,19.30
2022-11-18T01:20:52.042Z,18.73
2022-11-18T01:23:19.742Z,19.50
2022-11-18T01:25:48.779Z,19.80
2022-11-18T01:28:22.017Z,18.57
2022-11-18T01:30:50.581Z,22.57
2022-11-18T01:33:16.998Z,20.63
2022-11-18T01:35:43.914Z,19.80
2022-11-18T01:38:12.587Z,18.03
2022-11-18T01:40:39.751Z,25.30
2022-11-18T01:43:15.637Z,18.97
2022-11-18T01:45:44.608Z,24.27
2022-11-18T01:48:18.204Z,20.73
2022-11-18T01:51:00.674Z,21.87
2022-11-18T01:53:30.999Z,20.43
2022-11-18T01:56:02.997Z,21.60
2022-11-18T01:58:35.330Z,20.70
2022-11-18T02:01:04.451Z,21.37
2022-11-18T02:03:31.871Z,24.57
2022-11-18T02:06:00.351Z,20.00
2022-11-18T02:08:28.039Z,19.23
2022-11-18T02:10:54.386Z,21.60
2022-11-18T02:13:21.209Z,18.67
2022-11-18T02:16:00.648Z,26.40
2022-11-18T02:18:50.246Z,25.50
2022-11-18T02:21:50.615Z,24.00
2022-11-18T02:24:43.567Z,22.13
2022-11-18T02:27:30.875Z,24.80
2022-11-18T02:30:00.298Z,25.57
2022-11-18T02:32:33.502Z,29.37
2022-11-18T02:35:26.879Z,24.27
2022-11-18T02:38:08.142Z,27.57
2022-11-18T02:40:42.675Z,29.57
2022-11-18T02:43:30.885Z,29.93
2022-11-18T02:46:02.249Z,25.80
2022-11-18T02:48:33.560Z,26.13
2022-11-18T02:51:04.857Z,27.67
2022-11-18T02:53:33.682Z,30.40
2022-11-18T02:56:02.482Z,29.37
2022-11-18T02:58:29.066Z,30.23
2022-11-18T03:00:57.635Z,29.47
2022-11-18T03:03:30.070Z,29.97
2022-11-18T03:06:23.300Z,29.00
2022-11-18T03:08:55.786Z,29.83
2022-11-18T03:11:25.197Z,32.07
2022-11-18T03:14:16.482Z,32.03
2022-11-18T03:16:57.046Z,29.20
2022-11-18T03:19:30.915Z,28.33
2022-11-18T03:22:30.735Z,28.67
2022-11-18T03:25:07.463Z,26.50
2022-11-18T03:27:39.184Z,34.20
2022-11-18T03:30:10.302Z,30.30
2022-11-18T03:32:41.295Z,29.50
2022-11-18T03:35:12.762Z,25.53
2022-11-18T03:37:41.560Z,30.00
2022-11-18T03:40:21.286Z,29.50
2022-11-18T03:42:57.077Z,32.90
2022-11-18T03:45:42.364Z,28.30
2022-11-18T03:48:15.200Z,31.03
2022-11-18T03:50:50.850Z,30.20
2022-11-18T03:53:20.758Z,31.57
2022-11-18T03:55:52.971Z,31.77
2022-11-18T03:58:33.731Z,28.80
2022-11-18T04:01:08.146Z,33.60
2022-11-18T04:03:34.674Z,27.50
2022-11-18T04:06:21.667Z,26.23
2022-11-18T04:08:53.698Z,33.10
2022-11-18T04:11:46.185Z,26.60
2022-11-18T04:14:13.871Z,30.33
2022-11-18T04:16:42.135Z,26.87
2022-11-18T04:19:08.621Z,27.50
2022-11-18T04:21:35.297Z,28.60
2022-11-18T04:24:01.648Z,29.43
2022-11-18T04:26:28.094Z,27.83
2022-11-18T04:28:54.418Z,27.53
2022-11-18T04:31:20.739Z,28.97
2022-11-18T04:33:47.487Z,32.30
2022-11-18T04:36:13.804Z,25.57
2022-11-18T04:38:40.159Z,25.93
2022-11-18T04:41:06.478Z,28.70
2022-11-18T04:43:32.843Z,25.73
2022-11-18T04:45:59.163Z,28.40
2022-11-18T04:48:25.514Z,30.17
2022-11-18T04:50:51.843Z,26.73
2022-11-18T04:53:18.260Z,30.30
2022-11-18T04:55:44.591Z,27.30
2022-11-18T04:58:11.786Z,25.67
2022-11-18T05:00:38.109Z,24.00
2022-11-18T05:03:04.463Z,26.10
2022-11-18T05:05:30.790Z,26.67
2022-11-18T05:07:57.142Z,31.23
2022-11-18T05:10:23.466Z,24.77
2022-11-18T05:12:50.218Z,29.57
2022-11-18T05:15:17.928Z,31.30
2022-11-18T05:17:44.261Z,30.63
2022-11-18T05:20:11.494Z,26.50
2022-11-18T05:22:37.839Z,32.80
2022-11-18T05:25:04.585Z,25.20
2022-11-18T05:27:31.182Z,29.23
2022-11-18T05:29:57.567Z,30.00
2022-11-18T05:32:24.199Z,26.43
2022-11-18T05:34:50.605Z,27.90
2022-11-18T05:37:17.219Z,30.07
2022-11-18T05:39:43.554Z,30.97
2022-11-18T05:42:29.163Z,32.70
2022-11-18T05:44:58.524Z,33.10
2022-11-18T05:47:25.834Z,34.57
2022-11-18T05:49:52.164Z,31.87
2022-11-18T05:52:18.533Z,32.20
2022-11-18T05:54:49.631Z,30.47
2022-11-18T05:57:16.005Z,28.13
2022-11-18T05:59:42.325Z,32.50
2022-11-18T06:02:16.703Z,33.20
2022-11-18T06:04:48.902Z,29.27
2022-11-18T06:07:42.906Z,36.63
2022-11-18T06:10:13.754Z,30.43
2022-11-18T06:12:44.010Z,34.17
2022-11-18T06:15:23.036Z,32.70
2022-11-18T06:17:58.746Z,31.90
2022-11-18T06:20:26.186Z,30.20
2022-11-18T06:22:56.070Z,32.17
2022-11-18T06:25:22.997Z,32.53
2022-11-18T06:27:51.678Z,34.30
2022-11-18T06:30:18.349Z,32.30
2022-11-18T06:32:44.762Z,34.37
2022-11-18T06:35:11.125Z,34.77
2022-11-18T06:37:37.607Z,33.20
2022-11-18T06:40:04.236Z,37.10
2022-11-18T06:42:49.386Z,36.20
2022-11-18T06:45:15.810Z,31.20
2022-11-18T06:47:42.220Z,34.07
2022-11-18T06:50:08.940Z,34.20
2022-11-18T06:52:35.347Z,31.30
2022-11-18T06:55:01.673Z,34.03
2022-11-18T06:57:28.754Z,34.10
2022-11-18T07:00:00.654Z,37.73
2022-11-18T07:02:28.697Z,32.40
2022-11-18T07:04:55.035Z,35.13
2022-11-18T07:07:21.593Z,36.17
2022-11-18T07:09:48.007Z,32.70
2022-11-18T07:12:14.383Z,35.90
2022-11-18T07:14:40.707Z,35.47
2022-11-18T07:17:07.038Z,37.50
2022-11-18T07:19:35.926Z,37.40
2022-11-18T07:22:02.572Z,32.90
2022-11-18T07:24:29.336Z,42.80
2022-11-18T07:26:55.672Z,36.97
2022-11-18T07:29:22.026Z,37.90
2022-11-18T07:31:48.345Z,33.43
2022-11-18T07:34:14.758Z,35.50
2022-11-18T07:36:41.141Z,37.03
2022-11-18T07:39:07.743Z,33.17
2022-11-18T07:41:35.003Z,31.80
2022-11-18T07:44:03.373Z,34.27
2022-11-18T07:46:34.765Z,33.50
2022-11-18T07:49:03.971Z,30.20
2022-11-18T07:51:34.364Z,34.80
2022-11-18T07:54:01.781Z,30.17
2022-11-18T07:56:28.099Z,36.70
2022-11-18T07:58:55.685Z,38.73
2022-11-18T08:01:24.555Z,35.47
2022-11-18T08:03:51.527Z,32.63
2022-11-18T08:06:19.450Z,32.47
2022-11-18T08:08:46.340Z,32.83
2022-11-18T08:11:22.181Z,30.67
2022-11-18T08:13:49.316Z,35.17
2022-11-18T08:16:18.400Z,33.57
2022-11-18T08:18:45.554Z,32.17
2022-11-18T08:21:13.073Z,28.90
2022-11-18T08:23:42.162Z,30.63
2022-11-18T08:26:13.726Z,30.70
2022-11-18T08:28:41.818Z,26.17
2022-11-18T08:31:25.159Z,32.20
2022-11-18T08:34:09.631Z,30.00
2022-11-18T08:36:37.673Z,27.20
2022-11-18T08:39:07.467Z,28.50
2022-11-18T08:41:36.378Z,32.67
2022-11-18T08:44:03.842Z,26.20
2022-11-18T08:46:30.261Z,30.90
2022-11-18T08:48:57.665Z,28.73
2022-11-18T08:51:24.049Z,22.43
2022-11-18T08:53:50.473Z,30.23
2022-11-18T08:56:19.609Z,25.50
2022-11-18T08:58:46.686Z,25.30
2022-11-18T09:01:13.377Z,22.50
2022-11-18T09:03:40.310Z,25.70
2022-11-18T09:06:11.353Z,24.60
2022-11-18T09:08:38.044Z,26.23
2022-11-18T09:11:09.487Z,24.53
2022-11-18T09:16:27.700Z,25.57
2022-11-18T09:18:56.231Z,23.73
2022-11-18T09:21:23.299Z,23.97
2022-11-18T09:23:49.666Z,22.53
2022-11-18T09:26:19.188Z,22.10
2022-11-18T09:28:45.555Z,20.37
2022-11-18T09:31:14.327Z,24.67
2022-11-18T09:33:41.628Z,25.03
2022-11-18T09:36:23.238Z,21.43
2022-11-18T09:38:53.158Z,23.23
2022-11-18T09:41:48.679Z,20.93
2022-11-18T09:44:36.726Z,23.37
2022-11-18T09:47:08.939Z,21.73
2022-11-18T09:49:38.569Z,24.23
2022-11-18T09:52:07.168Z,19.13
2022-11-18T09:54:37.572Z,22.50
2022-11-18T09:57:13.823Z,20.20
2022-11-18T09:59:40.497Z,21.70
2022-11-18T10:02:34.730Z,18.30
2022-11-18T10:05:14.332Z,21.33
2022-11-18T10:07:55.320Z,16.37
2022-11-18T10:10:43.433Z,16.17
2022-11-18T10:13:32.151Z,20.80
2022-11-18T10:16:12.731Z,18.20
2022-11-18T10:19:03.576Z,17.67
2022-11-18T10:22:16.804Z,16.83
2022-11-18T10:24:50.621Z,18.03
2022-11-18T10:27:18.033Z,16.90
2022-11-18T10:29:48.286Z,16.63
2022-11-18T10:32:16.456Z,19.83
2022-11-18T10:34:54.981Z,15.03
2022-11-18T10:38:06.200Z,16.63
2022-11-18T10:40:28.031Z,16.93
2022-11-18T10:42:54.845Z,11.00
2022-11-18T10:45:21.222Z,15.43
2022-11-18T10:48:06.787Z,14.87
2022-11-18T10:50:36.473Z,14.23
2022-11-18T10:53:05.275Z,11.83
2022-11-18T10:55:32.378Z,14.67
2022-11-18T10:58:09.907Z,13.90
2022-11-18T11:00:38.185Z,12.70
2022-11-18T11:03:23.785Z,13.27
2022-11-18T11:06:13.555Z,14.30
2022-11-18T11:08:54.527Z,18.03
2022-11-18T11:11:45.849Z,12.13
2022-11-18T11:14:21.740Z,12.03
2022-11-18T11:17:09.656Z,10.73
2022-11-18T11:20:04.254Z,10.27
2022-11-18T11:22:30.740Z,8.73
2022-11-18T11:24:57.191Z,10.40
2022-11-18T11:30:55.035Z,8.97
2022-11-18T11:34:04.092Z,10.30
2022-11-18T11:36:45.578Z,11.13
2022-11-18T11:39:26.913Z,8.80
2022-11-18T11:42:06.230Z,7.77
2022-11-18T11:44:52.965Z,7.90
2022-11-18T11:47:47.042Z,33.13
2022-11-18T11:50:34.980Z,11.47
2022-11-18T11:53:38.085Z,9.47
2022-11-18T11:56:33.879Z,8.70
2022-11-18T11:59:25.911Z,8.07
2022-11-18T12:02:34.539Z,11.23
2022-11-18T12:05:17.255Z,7.67
2022-11-18T12:07:55.489Z,12.53
2022-11-18T12:10:30.874Z,12.43
2022-11-18T12:13:15.883Z,10.67
2022-11-18T12:15:55.867Z,11.90
2022-11-18T12:18:45.873Z,9.20
2022-11-18T12:21:47.349Z,9.47
2022-11-18T12:24:20.607Z,8.90
2022-11-18T12:26:49.695Z,14.20
2022-11-18T12:29:19.314Z,11.87
2022-11-18T12:32:14.330Z,11.63
2022-11-18T12:34:43.613Z,10.80
2022-11-18T12:37:32.971Z,10.70
2022-11-18T12:40:00.433Z,9.90
2022-11-18T12:42:55.195Z,13.97
2022-11-18T12:45:40.065Z,8.70
2022-11-18T12:48:31.565Z,10.37
2022-11-18T12:51:00.742Z,9.07
2022-11-18T12:53:32.921Z,9.23
2022-11-18T12:55:59.276Z,18.53
2022-11-18T12:58:26.956Z,10.87
2022-11-18T13:01:13.191Z,8.53
2022-11-18T13:03:39.842Z,9.67
2022-11-18T13:06:17.322Z,7.60
2022-11-18T13:08:43.752Z,8.47
2022-11-18T13:11:36.804Z,11.67
2022-11-18T13:14:28.835Z,8.00
2022-11-18T13:17:14.069Z,9.13
2022-11-18T13:19:40.443Z,6.87
2022-11-18T13:22:36.335Z,9.30
2022-11-18T13:25:03.108Z,7.53
2022-11-18T13:27:49.444Z,7.50
2022-11-18T13:30:17.272Z,8.17
2022-11-18T13:32:48.198Z,6.17
2022-11-18T13:35:21.400Z,8.40
2022-11-18T13:37:57.554Z,8.73
2022-11-18T13:40:30.586Z,8.33
2022-11-18T13:42:56.909Z,10.23
2022-11-18T13:45:28.253Z,6.07
2022-11-18T13:48:12.446Z,6.40
2022-11-18T13:50:51.230Z,6.27
2022-11-18T13:53:32.727Z,6.03
2022-11-18T13:56:19.027Z,7.30
2022-11-18T13:59:21.634Z,6.80
2022-11-18T14:01:38.557Z,7.90
2022-11-18T14:04:19.058Z,7.73
2022-11-18T14:06:45.615Z,5.83
2022-11-18T14:09:26.854Z,6.03
2022-11-18T14:12:05.386Z,6.07
2022-11-18T14:14:34.820Z,10.20
2022-11-18T14:17:14.565Z,5.43
2022-11-18T14:19:41.804Z,5.63
2022-11-18T14:22:23.731Z,5.33
2022-11-18T14:24:58.461Z,5.00
2022-11-18T14:27:41.569Z,5.10
2022-11-18T14:30:34.017Z,5.17
2022-11-18T14:33:10.206Z,5.10
2022-11-18T14:35:37.690Z,16.43
2022-11-18T14:39:04.063Z,6.10
2022-11-18T14:41:48.647Z,6.87
2022-11-18T14:44:15.443Z,5.63
2022-11-18T14:46:44.398Z,3.60
2022-11-18T14:49:15.293Z,7.13
2022-11-18T14:51:41.744Z,5.47
2022-11-18T14:54:12.357Z,6.27
2022-11-18T14:56:38.755Z,7.23
2022-11-18T14:59:05.090Z,8.17
2022-11-18T15:01:31.503Z,6.07
2022-11-18T15:03:58.219Z,3.60
2022-11-18T15:06:24.794Z,6.20
2022-11-18T15:08:52.907Z,8.13
2022-11-18T15:11:19.711Z,5.83
2022-11-18T15:13:46.461Z,8.90
2022-11-18T15:16:21.775Z,4.00
2022-11-18T15:18:51.337Z,5.20
2022-11-18T15:21:18.446Z,5.60
2022-11-18T15:23:44.970Z,5.10
2022-11-18T15:26:27.991Z,5.13
2022-11-18T15:28:55.963Z,4.03
2022-11-18T15:31:23.722Z,3.90
2022-11-18T15:33:51.157Z,4.17
2022-11-18T15:36:19.899Z,3.97
2022-11-18T15:38:47.166Z,4.10
2022-11-18T15:41:25.471Z,3.90
2022-11-18T15:43:53.439Z,5.17
2022-11-18T15:46:22.531Z,3.80
2022-11-18T15:48:52.324Z,5.07
2022-11-18T15:51:19.015Z,4.40
2022-11-18T15:53:45.600Z,8.53
2022-11-18T15:56:21.559Z,7.70
2022-11-18T15:58:56.627Z,16.90
2022-11-18T16:01:28.168Z,12.53
2022-11-18T16:03:55.183Z,14.50
2022-11-18T16:06:22.328Z,16.00
2022-11-18T16:08:48.748Z,16.60
2022-11-18T16:11:35.983Z,15.63
2022-11-18T16:14:06.977Z,13.53
2022-11-18T16:16:33.663Z,11.57
2022-11-18T16:19:02.432Z,7.70
2022-11-18T16:21:31.674Z,17.63
2022-11-18T16:24:00.141Z,9.37
2022-11-18T16:26:28.205Z,10.67
2022-11-18T16:28:54.523Z,7.73
2022-11-18T16:31:41.044Z,8.70
2022-11-18T16:34:15.947Z,9.47
2022-11-18T16:36:44.424Z,7.53
2022-11-18T16:39:13.496Z,7.87
2022-11-18T16:41:41.739Z,11.27
2022-11-18T16:44:10.694Z,9.23
2022-11-18T16:46:39.550Z,5.80
2022-11-18T16:49:07.202Z,7.00
2022-11-18T16:51:34.983Z,6.60
2022-11-18T16:54:04.837Z,8.63
2022-11-18T16:56:33.811Z,5.87
2022-11-18T16:59:02.789Z,8.97
2022-11-18T17:01:30.109Z,7.80
2022-11-18T17:03:57.307Z,7.37
2022-11-18T17:06:24.899Z,7.67
2022-11-18T17:08:51.863Z,13.40
2022-11-18T17:11:18.946Z,7.67
2022-11-18T17:13:45.776Z,8.97
2022-11-18T17:16:14.535Z,8.70
2022-11-18T17:18:41.199Z,9.77
2022-11-18T17:21:13.755Z,11.87
2022-11-18T17:23:41.155Z,10.97
2022-11-18T17:26:08.698Z,10.23
2022-11-18T17:28:36.210Z,14.63
2022-11-18T17:31:13.914Z,12.30
2022-11-18T17:33:41.028Z,5.67
2022-11-18T17:36:10.275Z,8.50
2022-11-18T17:38:38.674Z,12.00
2022-11-18T17:41:06.021Z,15.93
2022-11-18T17:43:32.420Z,16.67
2022-11-18T17:46:02.751Z,15.10
2022-11-18T17:48:30.296Z,8.73
2022-11-18T17:51:06.868Z,8.70
2022-11-18T17:53:33.231Z,6.07
2022-11-18T17:56:03.697Z,4.83
2022-11-18T17:58:30.518Z,10.73
2022-11-18T18:00:56.932Z,5.47
2022-11-18T18:03:23.307Z,10.33
2022-11-18T18:05:49.682Z,5.73
2022-11-18T18:08:16.018Z,34.47
2022-11-18T18:10:42.441Z,30.97
2022-11-18T18:13:27.384Z,24.67
2022-11-18T18:16:01.547Z,12.07
2022-11-18T18:18:29.079Z,9.47
2022-11-18T18:20:55.695Z,9.80
2022-11-18T18:23:22.105Z,6.90
2022-11-18T18:25:48.471Z,8.57
2022-11-18T18:28:14.817Z,7.87
2022-11-18T18:30:41.192Z,7.23
2022-11-18T18:33:07.509Z,12.53
2022-11-18T18:35:33.875Z,9.30
2022-11-18T18:38:00.227Z,10.87
2022-11-18T18:40:26.598Z,7.90
2022-11-18T18:42:52.930Z,9.80
2022-11-18T18:45:37.916Z,12.13
2022-11-18T18:48:04.432Z,9.87
2022-11-18T18:50:32.887Z,9.47
2022-11-18T18:52:59.213Z,7.47
2022-11-18T18:55:25.583Z,5.67
2022-11-18T18:57:52.288Z,7.93
2022-11-18T19:00:19.208Z,13.00
2022-11-18T19:02:45.533Z,11.90
2022-11-18T19:05:11.899Z,7.23
2022-11-18T19:07:38.306Z,7.57
2022-11-18T19:10:07.115Z,6.57
2022-11-18T19:12:52.200Z,9.67
2022-11-18T19:15:20.114Z,7.90
2022-11-18T19:17:46.787Z,6.37
2022-11-18T19:20:32.808Z,7.87
2022-11-18T19:23:01.868Z,6.67
2022-11-18T19:25:30.386Z,10.53
2022-11-18T19:27:57.154Z,7.73
2022-11-18T19:30:23.878Z,5.77
2022-11-18T19:32:50.907Z,7.20
2022-11-18T19:35:17.421Z,7.80
2022-11-18T19:37:43.760Z,5.53
2022-11-18T19:40:11.043Z,6.40
2022-11-18T19:42:37.711Z,5.10
2022-11-18T19:45:04.907Z,5.47
2022-11-18T19:47:32.013Z,4.50
2022-11-18T19:49:58.523Z,4.07
2022-11-18T19:52:25.424Z,4.57
2022-11-18T19:54:52.054Z,3.53
2022-11-18T19:57:18.451Z,3.37
2022-11-18T19:59:45.859Z,3.40
2022-11-18T20:02:12.722Z,3.97
2022-11-18T20:04:39.172Z,5.27
2022-11-18T20:07:05.588Z,6.43
2022-11-18T20:09:32.004Z,7.57
2022-11-18T20:11:58.365Z,6.33
2022-11-18T20:14:24.701Z,7.43
2022-11-18T20:16:51.728Z,10.13
2022-11-18T20:19:18.092Z,11.00
2022-11-18T20:21:44.744Z,11.10
2022-11-18T20:24:16.091Z,14.97
2022-11-18T20:26:43.164Z,6.70
2022-11-18T20:29:09.549Z,6.43
2022-11-18T20:31:36.779Z,7.03
2022-11-18T20:34:03.883Z,5.30
2022-11-18T20:36:33.116Z,6.67
2022-11-18T20:39:06.217Z,5.00
2022-11-18T20:41:32.793Z,6.10
2022-11-18T20:44:00.407Z,8.63
2022-11-18T20:46:27.462Z,9.03
2022-11-18T20:48:54.444Z,8.60
2022-11-18T20:51:23.577Z,14.00
2022-11-18T20:53:51.042Z,17.70
2022-11-18T20:56:23.019Z,10.77
2022-11-18T20:58:49.670Z,12.33
2022-11-18T21:01:19.150Z,9.87
2022-11-18T21:03:53.892Z,11.60
2022-11-18T21:06:22.244Z,9.63
2022-11-18T21:08:49.302Z,10.90
2022-11-18T21:11:15.895Z,9.30
2022-11-18T21:14:01.149Z,12.23
2022-11-18T21:16:28.325Z,12.93
2022-11-18T21:18:54.815Z,18.50
2022-11-18T21:21:40.124Z,14.97
2022-11-18T21:24:06.858Z,13.77
2022-11-18T21:26:34.714Z,11.37
2022-11-18T21:29:03.231Z,11.90
2022-11-18T21:31:29.855Z,13.90
2022-11-18T21:33:57.008Z,13.57
2022-11-18T21:36:25.448Z,14.87
2022-11-18T21:38:51.946Z,10.47
2022-11-18T21:41:18.563Z,11.53
2022-11-18T21:46:31.613Z,10.80
2022-11-18T21:49:00.351Z,11.13
2022-11-18T21:51:27.439Z,8.50
2022-11-18T21:53:54.424Z,12.60
2022-11-18T21:56:24.972Z,9.17
2022-11-18T21:58:52.423Z,9.90
2022-11-18T22:01:30.571Z,10.40
2022-11-18T22:03:59.387Z,10.27
2022-11-18T22:06:29.601Z,10.97
2022-11-18T22:08:56.315Z,11.20
2022-11-18T22:11:23.752Z,19.87
2022-11-18T22:13:53.718Z,22.60
2022-11-18T22:16:22.579Z,27.80
2022-11-18T22:18:56.996Z,23.30
2022-11-18T22:21:26.283Z,18.53
2022-11-18T22:23:52.840Z,12.10
2022-11-18T22:26:21.038Z,14.77
2022-11-18T22:28:51.680Z,14.90
2022-11-18T22:31:22.381Z,19.03
2022-11-18T22:33:50.049Z,18.53
2022-11-18T22:36:18.373Z,16.07
2022-11-18T22:38:45.679Z,14.37
2022-11-18T22:41:33.895Z,15.53
2022-11-18T22:44:06.720Z,11.70
2022-11-18T22:46:34.788Z,14.37
2022-11-18T22:49:01.151Z,14.00
2022-11-18T22:51:27.899Z,15.77
2022-11-18T22:54:15.843Z,13.50
2022-11-18T22:56:40.580Z,13.20
2022-11-18T22:59:07.573Z,14.90
2022-11-18T23:01:33.939Z,13.43
2022-11-18T23:04:02.090Z,12.93
2022-11-18T23:06:28.533Z,11.70
2022-11-18T23:08:58.287Z,13.17
2022-11-18T23:11:43.027Z,12.53
2022-11-18T23:14:10.248Z,11.73
2022-11-18T23:16:41.075Z,11.97
2022-11-18T23:19:12.133Z,14.00
2022-11-18T23:21:41.330Z,13.70
2022-11-18T23:24:10.632Z,11.97
2022-11-18T23:26:37.024Z,17.10
2022-11-18T23:29:03.407Z,14.10
2022-11-18T23:31:29.769Z,17.30
2022-11-18T23:33:57.360Z,16.43
2022-11-18T23:36:24.981Z,12.67
2022-11-18T23:38:52.998Z,12.00
2022-11-18T23:41:20.063Z,11.20
2022-11-18T23:43:48.364Z,13.40
2022-11-18T23:46:17.448Z,14.07
2022-11-18T23:48:44.786Z,12.37
2022-11-18T23:51:13.824Z,13.80
2022-11-18T23:53:40.545Z,10.13
2022-11-18T23:56:13.310Z,12.43
2022-11-18T23:58:41.730Z,11.60
